createdAt,value
2022-09-29T00:02:20.511Z,3.25
2022-09-29T00:05:23.486Z,3.17
2022-09-29T00:08:28.115Z,2.87
2022-09-29T00:11:30.949Z,3.12
2022-09-29T00:14:33.441Z,3.20
2022-09-29T00:17:36.381Z,3.08
2022-09-29T00:20:39.161Z,3.12
2022-09-29T00:23:42.239Z,3.13
2022-09-29T00:26:46.760Z,3.35
2022-09-29T00:29:49.766Z,2.92
2022-09-29T00:32:52.339Z,3.10
2022-09-29T00:36:03.732Z,3.40
2022-09-29T00:39:06.255Z,3.80
2022-09-29T00:42:12.166Z,3.28
2022-09-29T00:45:20.555Z,3.37
2022-09-29T00:48:29.960Z,3.33
2022-09-29T00:51:33.715Z,3.65
2022-09-29T00:54:47.415Z,3.77
2022-09-29T00:57:54.576Z,3.37
2022-09-29T01:00:58.104Z,3.60
2022-09-29T01:04:15.725Z,3.97
2022-09-29T01:07:20.159Z,3.80
2022-09-29T01:10:23.630Z,4.33
2022-09-29T01:13:26.565Z,4.20
2022-09-29T01:16:33.509Z,4.40
2022-09-29T01:20:05.213Z,3.70
2022-09-29T01:23:32.299Z,4.60
2022-09-29T01:26:56.722Z,4.00
2022-09-29T01:30:10.562Z,4.40
2022-09-29T01:33:56.062Z,4.65
2022-09-29T01:37:19.109Z,4.72
2022-09-29T01:40:40.945Z,4.30
2022-09-29T01:43:46.928Z,4.40
2022-09-29T01:46:54.201Z,4.97
2022-09-29T01:50:16.409Z,4.90
2022-09-29T01:53:22.350Z,4.72
2022-09-29T01:56:29.145Z,4.62
2022-09-29T01:59:38.055Z,4.43
2022-09-29T02:02:49.704Z,4.07
2022-09-29T02:05:55.902Z,4.35
2022-09-29T02:09:03.034Z,4.35
2022-09-29T02:12:07.275Z,4.07
2022-09-29T02:15:13.141Z,4.57
2022-09-29T02:18:23.003Z,3.53
2022-09-29T02:21:26.940Z,3.97
2022-09-29T02:24:29.771Z,4.22
2022-09-29T02:27:33.877Z,3.90
2022-09-29T02:30:37.053Z,4.30
2022-09-29T02:33:39.620Z,3.90
2022-09-29T02:36:45.497Z,3.80
2022-09-29T02:40:21.647Z,3.90
2022-09-29T02:43:48.320Z,4.30
2022-09-29T02:47:25.115Z,4.27
2022-09-29T02:50:43.452Z,3.95
2022-09-29T02:54:13.206Z,3.58
2022-09-29T02:57:42.377Z,4.40
2022-09-29T03:00:45.324Z,3.78
2022-09-29T03:03:48.313Z,3.97
2022-09-29T03:06:51.424Z,3.83
2022-09-29T03:09:54.969Z,3.97
2022-09-29T03:12:57.499Z,4.95
2022-09-29T03:16:00.459Z,4.18
2022-09-29T03:19:05.369Z,3.90
2022-09-29T03:22:08.133Z,3.50
2022-09-29T03:25:11.990Z,3.30
2022-09-29T03:28:16.599Z,3.42
2022-09-29T03:31:19.847Z,4.20
2022-09-29T03:34:22.858Z,4.13
2022-09-29T03:37:25.531Z,3.85
2022-09-29T03:40:29.061Z,3.90
2022-09-29T03:43:31.748Z,3.65
2022-09-29T03:46:34.821Z,3.47
2022-09-29T03:49:37.535Z,3.63
2022-09-29T03:52:40.437Z,4.25
2022-09-29T03:55:47.140Z,4.22
2022-09-29T03:58:50.363Z,4.20
2022-09-29T04:01:52.922Z,4.00
2022-09-29T04:04:55.762Z,4.63
2022-09-29T04:07:58.248Z,4.30
2022-09-29T04:11:01.104Z,4.30
2022-09-29T04:14:04.215Z,4.43
2022-09-29T04:17:07.143Z,4.20
2022-09-29T04:20:09.939Z,4.10
2022-09-29T04:23:13.495Z,4.30
2022-09-29T04:26:16.791Z,4.40
2022-09-29T04:29:19.630Z,4.70
2022-09-29T04:32:22.238Z,4.50
2022-09-29T04:35:25.008Z,5.33
2022-09-29T04:38:27.813Z,5.32
2022-09-29T04:41:33.548Z,4.90
2022-09-29T04:44:36.009Z,4.93
2022-09-29T04:47:38.757Z,5.03
2022-09-29T04:50:41.221Z,5.07
2022-09-29T04:53:44.027Z,4.87
2022-09-29T04:56:49.205Z,4.80
2022-09-29T04:59:52.041Z,4.75
2022-09-29T05:02:54.788Z,4.40
2022-09-29T05:05:58.249Z,2.60
2022-09-29T05:09:00.956Z,4.05
2022-09-29T05:12:04.247Z,3.47
2022-09-29T05:15:07.436Z,3.33
2022-09-29T05:18:10.249Z,3.67
2022-09-29T05:21:29.354Z,4.47
2022-09-29T05:24:32.483Z,4.45
2022-09-29T05:27:38.160Z,5.10
2022-09-29T05:30:42.676Z,4.37
2022-09-29T05:33:45.380Z,4.57
2022-09-29T05:36:48.414Z,4.50
2022-09-29T05:39:51.042Z,4.62
2022-09-29T05:42:54.053Z,4.80
2022-09-29T05:46:01.262Z,4.15
2022-09-29T05:49:04.321Z,5.20
2022-09-29T05:52:06.897Z,4.43
2022-09-29T05:55:10.638Z,4.10
2022-09-29T05:58:13.207Z,4.53
2022-09-29T06:01:19.615Z,4.40
2022-09-29T06:04:22.543Z,4.75
2022-09-29T06:07:25.160Z,4.33
2022-09-29T06:10:28.303Z,4.65
2022-09-29T06:13:30.783Z,4.70
2022-09-29T06:16:34.398Z,4.50
2022-09-29T06:19:37.364Z,4.45
2022-09-29T06:22:41.734Z,4.63
2022-09-29T06:25:44.224Z,4.22
2022-09-29T06:28:47.479Z,4.28
2022-09-29T06:31:50.057Z,4.30
2022-09-29T06:35:11.794Z,5.00
2022-09-29T06:38:14.700Z,5.00
2022-09-29T06:41:17.559Z,5.07
2022-09-29T06:44:27.886Z,4.18
2022-09-29T06:47:30.790Z,4.40
2022-09-29T06:50:35.066Z,5.15
2022-09-29T06:53:39.029Z,4.33
2022-09-29T06:56:42.328Z,4.20
2022-09-29T06:59:45.402Z,4.15
2022-09-29T07:02:48.115Z,4.57
2022-09-29T07:06:15.292Z,4.82
2022-09-29T07:09:17.368Z,3.70
2022-09-29T07:12:20.656Z,4.07
2022-09-29T07:15:31.432Z,3.70
2022-09-29T07:18:35.668Z,4.68
2022-09-29T07:21:38.135Z,4.20
2022-09-29T07:24:40.952Z,4.23
2022-09-29T07:27:43.531Z,3.55
2022-09-29T07:30:46.391Z,3.47
2022-09-29T07:33:50.484Z,3.53
2022-09-29T07:36:53.215Z,3.00
2022-09-29T07:39:55.690Z,1.90
2022-09-29T07:42:59.916Z,2.22
2022-09-29T07:46:02.637Z,2.00
2022-09-29T07:49:05.764Z,2.03
2022-09-29T07:52:08.619Z,1.52
2022-09-29T07:55:11.642Z,1.67
2022-09-29T07:58:14.164Z,1.80
2022-09-29T08:01:17.911Z,1.58
2022-09-29T08:04:21.061Z,1.58
2022-09-29T08:07:23.952Z,1.40
2022-09-29T08:10:29.225Z,1.47
2022-09-29T08:13:32.808Z,1.90
2022-09-29T08:16:36.261Z,2.20
2022-09-29T08:19:38.933Z,2.65
2022-09-29T08:22:41.932Z,2.95
2022-09-29T08:25:54.394Z,3.80
2022-09-29T08:29:07.898Z,3.30
2022-09-29T08:32:11.250Z,4.90
2022-09-29T08:35:14.797Z,4.07
2022-09-29T08:38:17.260Z,2.67
2022-09-29T08:41:35.320Z,3.27
2022-09-29T08:44:45.088Z,3.17
2022-09-29T08:47:51.095Z,4.60
2022-09-29T08:51:05.754Z,4.62
2022-09-29T08:54:38.613Z,4.70
2022-09-29T08:57:42.724Z,4.47
2022-09-29T09:01:03.922Z,4.43
2022-09-29T09:04:21.709Z,4.60
2022-09-29T09:07:39.599Z,5.18
2022-09-29T09:10:47.625Z,4.40
2022-09-29T09:14:04.260Z,4.73
2022-09-29T09:17:18.976Z,5.40
2022-09-29T09:20:35.139Z,4.90
2022-09-29T09:23:55.585Z,3.78
2022-09-29T09:27:01.271Z,4.68
2022-09-29T09:30:06.843Z,4.20
2022-09-29T09:33:28.632Z,4.20
2022-09-29T09:36:34.747Z,4.22
2022-09-29T09:39:49.263Z,2.40
2022-09-29T09:42:57.836Z,4.78
2022-09-29T09:46:23.855Z,4.20
2022-09-29T09:49:59.074Z,3.70
2022-09-29T09:53:06.033Z,4.57
2022-09-29T09:56:33.556Z,4.62
2022-09-29T10:00:00.241Z,5.53
2022-09-29T10:03:06.431Z,5.30
2022-09-29T10:06:09.484Z,5.12
2022-09-29T10:09:14.831Z,4.45
2022-09-29T10:12:19.293Z,4.45
2022-09-29T10:15:29.869Z,4.40
2022-09-29T10:18:53.052Z,3.57
2022-09-29T10:22:01.407Z,4.60
2022-09-29T10:25:20.671Z,4.15
2022-09-29T10:28:24.146Z,3.70
2022-09-29T10:31:33.026Z,4.03
2022-09-29T10:34:43.467Z,3.50
2022-09-29T10:37:59.911Z,3.75
2022-09-29T10:41:07.098Z,3.45
2022-09-29T10:44:21.314Z,3.62
2022-09-29T10:47:24.126Z,3.78
2022-09-29T10:54:09.021Z,3.70
2022-09-29T10:57:15.971Z,3.67
2022-09-29T11:00:35.733Z,3.47
2022-09-29T11:03:41.519Z,3.20
2022-09-29T11:06:44.814Z,2.87
2022-09-29T11:09:47.802Z,3.00
2022-09-29T11:12:50.837Z,2.75
2022-09-29T11:15:54.017Z,2.92
2022-09-29T11:19:04.902Z,2.35
2022-09-29T11:22:34.044Z,2.60
2022-09-29T11:26:02.906Z,2.50
2022-09-29T11:29:30.837Z,1.58
2022-09-29T11:32:49.300Z,1.35
2022-09-29T11:35:55.554Z,1.58
2022-09-29T11:39:08.757Z,1.30
2022-09-29T11:42:41.073Z,1.23
2022-09-29T11:46:20.328Z,0.90
2022-09-29T11:49:42.396Z,0.80
2022-09-29T11:52:56.901Z,1.10
2022-09-29T11:56:24.067Z,0.70
2022-09-29T11:59:36.748Z,0.90
2022-09-29T12:02:49.088Z,1.65
2022-09-29T12:06:07.744Z,1.40
2022-09-29T12:09:22.267Z,1.10
2022-09-29T12:12:34.881Z,1.07
2022-09-29T12:15:45.264Z,1.05
2022-09-29T12:18:54.494Z,0.95
2022-09-29T12:21:59.817Z,0.90
2022-09-29T12:25:03.150Z,1.00
2022-09-29T12:28:12.457Z,0.80
2022-09-29T12:31:28.424Z,1.00
2022-09-29T12:35:06.490Z,1.00
2022-09-29T12:38:17.431Z,1.10
2022-09-29T12:41:32.319Z,1.05
2022-09-29T12:44:45.011Z,1.50
2022-09-29T12:48:03.322Z,1.50
2022-09-29T12:51:37.972Z,1.40
2022-09-29T12:54:45.131Z,1.33
2022-09-29T12:57:50.290Z,0.70
2022-09-29T13:01:03.801Z,0.80
2022-09-29T13:04:30.551Z,0.70
2022-09-29T13:07:43.408Z,0.50
2022-09-29T13:11:03.355Z,0.43
2022-09-29T13:14:18.052Z,0.40
2022-09-29T13:17:30.479Z,0.93
2022-09-29T13:20:33.283Z,0.65
2022-09-29T13:23:55.081Z,0.40
2022-09-29T13:27:20.417Z,0.40
2022-09-29T13:30:25.446Z,0.70
2022-09-29T13:33:28.979Z,0.77
2022-09-29T13:36:37.848Z,0.47
2022-09-29T13:39:43.281Z,0.50
2022-09-29T13:42:47.941Z,0.60
2022-09-29T13:45:53.276Z,0.60
2022-09-29T13:49:08.385Z,0.80
2022-09-29T13:52:10.763Z,0.57
2022-09-29T13:55:54.408Z,0.55
2022-09-29T13:59:00.233Z,0.75
2022-09-29T14:02:38.507Z,0.43
2022-09-29T14:05:45.825Z,0.60
2022-09-29T14:09:12.625Z,0.65
2022-09-29T14:12:22.741Z,0.60
2022-09-29T14:15:26.702Z,0.60
2022-09-29T14:18:42.499Z,0.47
2022-09-29T14:21:56.592Z,0.50
2022-09-29T14:25:08.936Z,0.70
2022-09-29T14:28:21.895Z,0.80
2022-09-29T14:31:25.916Z,0.80
2022-09-29T14:34:30.844Z,1.20
2022-09-29T14:37:33.706Z,1.03
2022-09-29T14:40:37.575Z,1.50
2022-09-29T14:43:46.968Z,1.83
2022-09-29T14:47:29.025Z,1.95
2022-09-29T14:50:55.808Z,1.40
2022-09-29T14:53:58.325Z,1.53
2022-09-29T14:57:19.868Z,1.90
2022-09-29T15:00:29.439Z,1.60
2022-09-29T15:03:50.885Z,1.60
2022-09-29T15:06:53.628Z,1.80
2022-09-29T15:09:58.466Z,2.47
2022-09-29T15:13:20.150Z,1.73
2022-09-29T15:16:30.488Z,2.05
2022-09-29T15:19:42.789Z,1.70
2022-09-29T15:23:22.615Z,1.60
2022-09-29T15:26:27.529Z,1.40
2022-09-29T15:29:30.576Z,1.80
2022-09-29T15:32:33.346Z,1.67
2022-09-29T15:35:40.069Z,1.65
2022-09-29T15:38:42.911Z,2.03
2022-09-29T15:41:45.759Z,1.53
2022-09-29T15:45:20.540Z,1.48
2022-09-29T15:48:23.344Z,1.48
2022-09-29T15:51:25.965Z,1.50
2022-09-29T15:54:35.042Z,1.40
2022-09-29T15:57:57.821Z,1.60
2022-09-29T16:01:08.806Z,1.48
2022-09-29T16:04:13.167Z,1.20
2022-09-29T16:07:28.470Z,1.40
2022-09-29T16:10:48.325Z,1.25
2022-09-29T16:13:55.091Z,1.43
2022-09-29T16:16:57.997Z,1.30
2022-09-29T16:20:00.876Z,1.25
2022-09-29T16:23:22.105Z,1.25
2022-09-29T16:26:52.461Z,1.30
2022-09-29T16:30:18.660Z,1.10
2022-09-29T16:33:22.507Z,1.30
2022-09-29T16:36:27.428Z,1.30
2022-09-29T16:39:40.036Z,0.90
2022-09-29T16:42:52.963Z,1.05
2022-09-29T16:45:57.983Z,1.43
2022-09-29T16:49:00.835Z,1.37
2022-09-29T16:52:27.080Z,1.15
2022-09-29T16:55:30.834Z,0.90
2022-09-29T16:58:33.346Z,1.37
2022-09-29T17:01:36.152Z,1.07
2022-09-29T17:04:38.961Z,1.67
2022-09-29T17:07:42.002Z,1.83
2022-09-29T17:10:44.960Z,1.30
2022-09-29T17:13:47.913Z,1.50
2022-09-29T17:16:51.708Z,1.40
2022-09-29T17:19:56.698Z,1.20
2022-09-29T17:23:00.188Z,1.42
2022-09-29T17:26:23.301Z,1.30
2022-09-29T17:29:26.214Z,1.25
2022-09-29T17:32:29.060Z,1.03
2022-09-29T17:35:37.931Z,1.20
2022-09-29T17:38:42.483Z,1.60
2022-09-29T17:41:46.151Z,1.42
2022-09-29T17:44:49.154Z,1.40
2022-09-29T17:47:51.738Z,1.57
2022-09-29T17:50:56.553Z,1.70
2022-09-29T17:54:00.390Z,1.70
2022-09-29T17:57:03.532Z,1.40
2022-09-29T18:00:39.618Z,1.55
2022-09-29T18:03:42.511Z,1.50
2022-09-29T18:06:45.210Z,1.67
2022-09-29T18:09:48.026Z,1.42
2022-09-29T18:12:50.656Z,1.80
2022-09-29T18:15:57.888Z,1.77
2022-09-29T18:19:00.602Z,1.40
2022-09-29T18:22:06.379Z,1.70
2022-09-29T18:25:12.034Z,1.52
2022-09-29T18:28:16.120Z,1.70
2022-09-29T18:31:27.866Z,1.60
2022-09-29T18:34:34.038Z,1.47
2022-09-29T18:37:37.605Z,1.48
2022-09-29T18:40:41.822Z,1.80
2022-09-29T18:43:44.412Z,1.90
2022-09-29T18:46:47.628Z,1.90
2022-09-29T18:49:50.225Z,1.97
2022-09-29T18:52:54.027Z,1.58
2022-09-29T18:56:00.937Z,2.12
2022-09-29T18:59:07.684Z,2.28
2022-09-29T19:02:12.839Z,1.98
2022-09-29T19:05:20.986Z,2.40
2022-09-29T19:08:24.184Z,2.08
2022-09-29T19:11:27.414Z,1.70
2022-09-29T19:14:34.305Z,1.60
2022-09-29T19:17:37.110Z,1.67
2022-09-29T19:20:40.012Z,1.70
2022-09-29T19:23:43.303Z,1.87
2022-09-29T19:26:46.391Z,16.12
2022-09-29T19:29:58.492Z,16.05
2022-09-29T19:33:07.472Z,9.70
2022-09-29T19:36:14.951Z,5.63
2022-09-29T19:39:17.875Z,6.55
2022-09-29T19:42:20.756Z,5.62
2022-09-29T19:45:23.267Z,4.20
2022-09-29T19:48:26.026Z,3.87
2022-09-29T19:51:47.651Z,3.83
2022-09-29T19:54:50.588Z,4.03
2022-09-29T19:57:53.080Z,4.70
2022-09-29T20:00:57.401Z,4.20
2022-09-29T20:04:00.318Z,3.97
2022-09-29T20:07:04.269Z,4.23
2022-09-29T20:10:08.576Z,4.60
2022-09-29T20:13:13.965Z,4.28
2022-09-29T20:16:17.349Z,4.15
2022-09-29T20:19:21.114Z,3.50
2022-09-29T20:22:26.579Z,3.53
2022-09-29T20:25:29.227Z,2.97
2022-09-29T20:28:32.012Z,3.12
2022-09-29T20:31:38.634Z,2.70
2022-09-29T20:34:41.493Z,3.10
2022-09-29T20:37:44.020Z,2.93
2022-09-29T20:40:48.682Z,3.58
2022-09-29T20:43:54.499Z,3.30
2022-09-29T20:46:58.287Z,3.45
2022-09-29T20:50:00.948Z,2.92
2022-09-29T20:53:05.041Z,2.57
2022-09-29T20:56:16.286Z,2.85
2022-09-29T20:59:21.032Z,2.80
2022-09-29T21:02:23.847Z,3.20
2022-09-29T21:05:27.036Z,3.53
2022-09-29T21:08:29.807Z,3.30
2022-09-29T21:11:38.205Z,3.35
2022-09-29T21:14:41.342Z,3.10
2022-09-29T21:17:44.230Z,2.85
2022-09-29T21:20:46.874Z,2.72
2022-09-29T21:23:53.499Z,2.23
2022-09-29T21:26:56.089Z,2.22
2022-09-29T21:29:58.915Z,2.60
2022-09-29T21:33:01.519Z,3.10
2022-09-29T21:36:06.418Z,2.75
2022-09-29T21:39:09.272Z,3.10
2022-09-29T21:42:12.125Z,3.70
2022-09-29T21:45:14.759Z,3.80
2022-09-29T21:48:17.566Z,4.82
2022-09-29T21:51:29.482Z,4.32
2022-09-29T21:54:33.922Z,4.70
2022-09-29T21:57:38.435Z,5.28
2022-09-29T22:00:41.280Z,4.93
2022-09-29T22:03:45.932Z,6.97
2022-09-29T22:06:48.680Z,7.75
2022-09-29T22:09:51.483Z,7.43
2022-09-29T22:12:54.065Z,7.95
2022-09-29T22:16:03.691Z,8.10
2022-09-29T22:19:22.401Z,8.27
2022-09-29T22:22:26.057Z,7.68
2022-09-29T22:25:32.885Z,7.90
2022-09-29T22:28:36.835Z,7.28
2022-09-29T22:31:40.456Z,6.78
2022-09-29T22:34:43.666Z,7.05
2022-09-29T22:37:46.592Z,8.48
2022-09-29T22:40:50.186Z,7.20
2022-09-29T22:43:56.489Z,6.87
2022-09-29T22:46:59.442Z,6.10
2022-09-29T22:50:02.200Z,6.97
2022-09-29T22:53:05.515Z,6.30
2022-09-29T22:56:19.985Z,6.10
2022-09-29T22:59:23.001Z,5.03
2022-09-29T23:02:26.099Z,5.82
2022-09-29T23:05:29.017Z,4.93
2022-09-29T23:08:32.607Z,5.70
2022-09-29T23:11:36.101Z,4.83
2022-09-29T23:14:38.743Z,4.93
2022-09-29T23:17:41.611Z,5.37
2022-09-29T23:20:44.530Z,5.50
2022-09-29T23:23:51.254Z,5.22
2022-09-29T23:26:53.907Z,4.93
2022-09-29T23:29:56.784Z,5.10
2022-09-29T23:32:59.380Z,5.72
2022-09-29T23:36:10.907Z,5.05
2022-09-29T23:39:14.211Z,6.32
2022-09-29T23:42:17.799Z,7.73
2022-09-29T23:45:20.739Z,8.38
2022-09-29T23:48:24.298Z,8.65
2022-09-29T23:51:28.233Z,8.68
2022-09-29T23:54:31.427Z,8.52
2022-09-29T23:57:33.933Z,7.67
